sensor_id;sensor_type;location;lat;lon;timestamp;P1;durP1;ratioP1;P2;durP2;ratioP2
68614;SDS011;55593;51.994;5.882;2022-10-04T00:02:05;23.92;;;8.25;;
68614;SDS011;55593;51.994;5.882;2022-10-04T00:04:46;14.82;;;7.15;;
68614;SDS011;55593;51.994;5.882;2022-10-04T00:07:23;10.70;;;6.78;;
68614;SDS011;55593;51.994;5.882;2022-10-04T00:09:57;19.30;;;8.10;;
68614;SDS011;55593;51.994;5.882;2022-10-04T00:12:30;15.20;;;8.40;;
68614;SDS011;55593;51.994;5.882;2022-10-04T00:15:01;19.35;;;8.38;;
68614;SDS011;55593;51.994;5.882;2022-10-04T00:17:32;17.83;;;8.95;;
68614;SDS011;55593;51.994;5.882;2022-10-04T00:20:03;15.38;;;9.15;;
68614;SDS011;55593;51.994;5.882;2022-10-04T00:25:59;21.30;;;9.77;;
68614;SDS011;55593;51.994;5.882;2022-10-04T00:28:31;13.60;;;8.63;;
68614;SDS011;55593;51.994;5.882;2022-10-04T00:31:14;16.33;;;9.13;;
68614;SDS011;55593;51.994;5.882;2022-10-04T00:33:46;19.92;;;9.55;;
68614;SDS011;55593;51.994;5.882;2022-10-04T00:42:16;14.68;;;10.13;;
68614;SDS011;55593;51.994;5.882;2022-10-04T00:44:52;22.45;;;9.50;;
68614;SDS011;55593;51.994;5.882;2022-10-04T00:47:24;20.33;;;10.13;;
68614;SDS011;55593;51.994;5.882;2022-10-04T00:49:58;21.77;;;9.23;;
68614;SDS011;55593;51.994;5.882;2022-10-04T00:52:31;27.60;;;13.30;;
68614;SDS011;55593;51.994;5.882;2022-10-04T00:55:03;25.60;;;14.13;;
68614;SDS011;55593;51.994;5.882;2022-10-04T00:57:39;24.63;;;14.10;;
68614;SDS011;55593;51.994;5.882;2022-10-04T01:00:10;21.92;;;12.30;;
68614;SDS011;55593;51.994;5.882;2022-10-04T01:02:47;22.63;;;10.88;;
68614;SDS011;55593;51.994;5.882;2022-10-04T01:05:20;23.08;;;11.38;;
68614;SDS011;55593;51.994;5.882;2022-10-04T01:07:54;21.42;;;8.65;;
68614;SDS011;55593;51.994;5.882;2022-10-04T01:10:26;20.33;;;9.80;;
68614;SDS011;55593;51.994;5.882;2022-10-04T01:13:03;26.48;;;9.77;;
68614;SDS011;55593;51.994;5.882;2022-10-04T01:15:35;21.20;;;9.27;;
68614;SDS011;55593;51.994;5.882;2022-10-04T01:18:13;15.82;;;8.23;;
68614;SDS011;55593;51.994;5.882;2022-10-04T01:20:51;21.30;;;9.55;;
68614;SDS011;55593;51.994;5.882;2022-10-04T01:23:35;19.92;;;9.90;;
68614;SDS011;55593;51.994;5.882;2022-10-04T01:29:05;24.00;;;8.90;;
68614;SDS011;55593;51.994;5.882;2022-10-04T01:31:37;19.00;;;9.45;;
68614;SDS011;55593;51.994;5.882;2022-10-04T01:34:07;13.52;;;9.45;;
68614;SDS011;55593;51.994;5.882;2022-10-04T01:36:38;18.25;;;9.68;;
68614;SDS011;55593;51.994;5.882;2022-10-04T01:39:10;21.00;;;10.50;;
68614;SDS011;55593;51.994;5.882;2022-10-04T01:41:41;15.82;;;10.02;;
68614;SDS011;55593;51.994;5.882;2022-10-04T01:44:15;20.77;;;11.23;;
68614;SDS011;55593;51.994;5.882;2022-10-04T01:46:51;17.40;;;10.18;;
68614;SDS011;55593;51.994;5.882;2022-10-04T01:49:24;21.92;;;11.13;;
68614;SDS011;55593;51.994;5.882;2022-10-04T01:51:56;20.48;;;10.95;;
68614;SDS011;55593;51.994;5.882;2022-10-04T01:54:33;15.50;;;10.32;;
68614;SDS011;55593;51.994;5.882;2022-10-04T01:57:05;18.10;;;10.05;;
68614;SDS011;55593;51.994;5.882;2022-10-04T01:59:39;21.83;;;11.75;;
68614;SDS011;55593;51.994;5.882;2022-10-04T02:02:16;19.27;;;10.90;;
68614;SDS011;55593;51.994;5.882;2022-10-04T02:04:50;24.92;;;11.43;;
68614;SDS011;55593;51.994;5.882;2022-10-04T02:07:21;21.63;;;11.27;;
68614;SDS011;55593;51.994;5.882;2022-10-04T02:09:56;27.05;;;12.10;;
68614;SDS011;55593;51.994;5.882;2022-10-04T02:12:27;18.42;;;10.82;;
68614;SDS011;55593;51.994;5.882;2022-10-04T02:14:58;18.50;;;10.50;;
68614;SDS011;55593;51.994;5.882;2022-10-04T02:17:29;24.77;;;10.93;;
68614;SDS011;55593;51.994;5.882;2022-10-04T02:20:00;21.40;;;10.77;;
68614;SDS011;55593;51.994;5.882;2022-10-04T02:22:30;24.40;;;12.00;;
68614;SDS011;55593;51.994;5.882;2022-10-04T02:25:03;21.95;;;10.98;;
68614;SDS011;55593;51.994;5.882;2022-10-04T02:27:34;20.63;;;11.10;;
68614;SDS011;55593;51.994;5.882;2022-10-04T02:30:04;23.75;;;12.80;;
68614;SDS011;55593;51.994;5.882;2022-10-04T02:32:35;18.80;;;10.65;;
68614;SDS011;55593;51.994;5.882;2022-10-04T02:35:17;16.17;;;10.32;;
68614;SDS011;55593;51.994;5.882;2022-10-04T02:37:47;26.45;;;12.18;;
68614;SDS011;55593;51.994;5.882;2022-10-04T02:40:25;20.67;;;11.10;;
68614;SDS011;55593;51.994;5.882;2022-10-04T02:42:58;17.67;;;11.50;;
68614;SDS011;55593;51.994;5.882;2022-10-04T02:45:31;20.50;;;11.18;;
68614;SDS011;55593;51.994;5.882;2022-10-04T02:50:34;16.58;;;11.30;;
68614;SDS011;55593;51.994;5.882;2022-10-04T02:53:09;15.60;;;9.13;;
68614;SDS011;55593;51.994;5.882;2022-10-04T02:55:44;15.82;;;11.25;;
68614;SDS011;55593;51.994;5.882;2022-10-04T02:58:14;19.83;;;10.98;;
68614;SDS011;55593;51.994;5.882;2022-10-04T03:00:45;20.85;;;12.32;;
68614;SDS011;55593;51.994;5.882;2022-10-04T03:03:18;18.48;;;10.90;;
68614;SDS011;55593;51.994;5.882;2022-10-04T03:05:58;19.15;;;10.57;;
68614;SDS011;55593;51.994;5.882;2022-10-04T03:08:29;17.75;;;10.73;;
68614;SDS011;55593;51.994;5.882;2022-10-04T03:11:03;17.38;;;11.15;;
68614;SDS011;55593;51.994;5.882;2022-10-04T03:13:34;21.90;;;11.27;;
68614;SDS011;55593;51.994;5.882;2022-10-04T03:16:04;18.05;;;10.95;;
68614;SDS011;55593;51.994;5.882;2022-10-04T03:18:34;20.17;;;11.10;;
68614;SDS011;55593;51.994;5.882;2022-10-04T03:21:04;14.38;;;10.68;;
68614;SDS011;55593;51.994;5.882;2022-10-04T03:23:34;14.80;;;10.25;;
68614;SDS011;55593;51.994;5.882;2022-10-04T03:26:09;16.88;;;10.15;;
68614;SDS011;55593;51.994;5.882;2022-10-04T03:28:44;20.23;;;10.50;;
68614;SDS011;55593;51.994;5.882;2022-10-04T03:31:13;20.27;;;11.32;;
68614;SDS011;55593;51.994;5.882;2022-10-04T03:33:44;25.35;;;12.20;;
68614;SDS011;55593;51.994;5.882;2022-10-04T03:36:15;20.55;;;11.43;;
68614;SDS011;55593;51.994;5.882;2022-10-04T03:38:45;19.95;;;11.68;;
68614;SDS011;55593;51.994;5.882;2022-10-04T03:41:18;18.92;;;12.20;;
68614;SDS011;55593;51.994;5.882;2022-10-04T03:43:47;17.80;;;11.45;;
68614;SDS011;55593;51.994;5.882;2022-10-04T03:46:17;21.23;;;11.15;;
68614;SDS011;55593;51.994;5.882;2022-10-04T03:48:48;20.83;;;11.27;;
68614;SDS011;55593;51.994;5.882;2022-10-04T03:51:19;16.50;;;11.38;;
68614;SDS011;55593;51.994;5.882;2022-10-04T03:53:52;22.58;;;11.73;;
68614;SDS011;55593;51.994;5.882;2022-10-04T03:56:27;22.27;;;12.55;;
68614;SDS011;55593;51.994;5.882;2022-10-04T03:58:57;21.27;;;12.68;;
68614;SDS011;55593;51.994;5.882;2022-10-04T04:01:34;15.40;;;11.27;;
68614;SDS011;55593;51.994;5.882;2022-10-04T04:04:09;17.70;;;11.32;;
68614;SDS011;55593;51.994;5.882;2022-10-04T04:06:46;18.63;;;12.63;;
68614;SDS011;55593;51.994;5.882;2022-10-04T04:11:52;20.40;;;12.30;;
68614;SDS011;55593;51.994;5.882;2022-10-04T04:14:25;19.20;;;12.93;;
68614;SDS011;55593;51.994;5.882;2022-10-04T04:17:15;18.55;;;12.00;;
68614;SDS011;55593;51.994;5.882;2022-10-04T04:19:45;20.80;;;13.05;;
68614;SDS011;55593;51.994;5.882;2022-10-04T04:22:15;25.77;;;13.60;;
68614;SDS011;55593;51.994;5.882;2022-10-04T04:24:44;18.88;;;13.82;;
68614;SDS011;55593;51.994;5.882;2022-10-04T04:27:17;21.65;;;14.15;;
68614;SDS011;55593;51.994;5.882;2022-10-04T04:29:49;22.77;;;13.05;;
68614;SDS011;55593;51.994;5.882;2022-10-04T04:32:20;23.77;;;13.55;;
68614;SDS011;55593;51.994;5.882;2022-10-04T04:34:56;18.42;;;12.90;;
68614;SDS011;55593;51.994;5.882;2022-10-04T04:37:31;21.27;;;13.63;;
68614;SDS011;55593;51.994;5.882;2022-10-04T04:40:10;25.40;;;14.80;;
68614;SDS011;55593;51.994;5.882;2022-10-04T04:42:49;23.73;;;15.45;;
68614;SDS011;55593;51.994;5.882;2022-10-04T04:45:19;20.20;;;13.77;;
68614;SDS011;55593;51.994;5.882;2022-10-04T04:47:50;27.27;;;14.80;;
68614;SDS011;55593;51.994;5.882;2022-10-04T04:50:22;19.48;;;12.75;;
68614;SDS011;55593;51.994;5.882;2022-10-04T04:52:56;24.88;;;14.32;;
68614;SDS011;55593;51.994;5.882;2022-10-04T04:55:28;22.00;;;13.95;;
68614;SDS011;55593;51.994;5.882;2022-10-04T04:58:02;22.80;;;13.25;;
68614;SDS011;55593;51.994;5.882;2022-10-04T05:00:33;23.67;;;14.10;;
68614;SDS011;55593;51.994;5.882;2022-10-04T05:03:05;24.80;;;14.45;;
68614;SDS011;55593;51.994;5.882;2022-10-04T05:05:35;28.27;;;13.60;;
68614;SDS011;55593;51.994;5.882;2022-10-04T05:08:10;19.70;;;13.35;;
68614;SDS011;55593;51.994;5.882;2022-10-04T05:10:44;30.05;;;14.70;;
68614;SDS011;55593;51.994;5.882;2022-10-04T05:13:16;20.88;;;14.32;;
68614;SDS011;55593;51.994;5.882;2022-10-04T05:15:46;21.75;;;13.45;;
68614;SDS011;55593;51.994;5.882;2022-10-04T05:18:26;20.80;;;13.88;;
68614;SDS011;55593;51.994;5.882;2022-10-04T05:21:01;25.08;;;14.15;;
68614;SDS011;55593;51.994;5.882;2022-10-04T05:23:33;23.38;;;13.70;;
68614;SDS011;55593;51.994;5.882;2022-10-04T05:26:02;18.77;;;13.23;;
68614;SDS011;55593;51.994;5.882;2022-10-04T05:28:36;22.05;;;14.55;;
68614;SDS011;55593;51.994;5.882;2022-10-04T05:31:19;18.75;;;13.70;;
68614;SDS011;55593;51.994;5.882;2022-10-04T05:33:56;25.02;;;15.40;;
68614;SDS011;55593;51.994;5.882;2022-10-04T05:39:24;28.33;;;14.82;;
68614;SDS011;55593;51.994;5.882;2022-10-04T05:42:00;21.52;;;13.90;;
68614;SDS011;55593;51.994;5.882;2022-10-04T05:44:43;21.92;;;13.70;;
68614;SDS011;55593;51.994;5.882;2022-10-04T05:47:14;21.58;;;14.02;;
68614;SDS011;55593;51.994;5.882;2022-10-04T05:49:47;22.42;;;13.73;;
68614;SDS011;55593;51.994;5.882;2022-10-04T05:52:23;23.52;;;13.43;;
68614;SDS011;55593;51.994;5.882;2022-10-04T05:57:48;21.40;;;14.23;;
68614;SDS011;55593;51.994;5.882;2022-10-04T06:00:38;21.52;;;13.23;;
68614;SDS011;55593;51.994;5.882;2022-10-04T06:03:18;20.70;;;14.27;;
68614;SDS011;55593;51.994;5.882;2022-10-04T06:05:54;25.48;;;14.50;;
68614;SDS011;55593;51.994;5.882;2022-10-04T06:08:38;23.00;;;15.25;;
68614;SDS011;55593;51.994;5.882;2022-10-04T06:11:13;25.95;;;15.05;;
68614;SDS011;55593;51.994;5.882;2022-10-04T06:14:00;24.60;;;14.15;;
68614;SDS011;55593;51.994;5.882;2022-10-04T06:19:55;27.13;;;15.70;;
68614;SDS011;55593;51.994;5.882;2022-10-04T06:22:33;23.40;;;15.43;;
68614;SDS011;55593;51.994;5.882;2022-10-04T06:25:11;23.63;;;16.10;;
68614;SDS011;55593;51.994;5.882;2022-10-04T06:27:42;23.63;;;14.80;;
68614;SDS011;55593;51.994;5.882;2022-10-04T06:30:18;19.25;;;14.52;;
68614;SDS011;55593;51.994;5.882;2022-10-04T06:35:53;28.38;;;15.10;;
68614;SDS011;55593;51.994;5.882;2022-10-04T06:38:44;33.15;;;16.08;;
68614;SDS011;55593;51.994;5.882;2022-10-04T06:41:55;21.13;;;15.43;;
68614;SDS011;55593;51.994;5.882;2022-10-04T06:44:51;22.02;;;15.10;;
68614;SDS011;55593;51.994;5.882;2022-10-04T06:47:34;18.90;;;14.52;;
68614;SDS011;55593;51.994;5.882;2022-10-04T06:50:18;23.55;;;15.60;;
68614;SDS011;55593;51.994;5.882;2022-10-04T06:52:57;22.58;;;14.77;;
68614;SDS011;55593;51.994;5.882;2022-10-04T06:55:40;24.73;;;14.52;;
68614;SDS011;55593;51.994;5.882;2022-10-04T07:01:44;21.33;;;15.40;;
68614;SDS011;55593;51.994;5.882;2022-10-04T07:04:19;30.17;;;15.23;;
68614;SDS011;55593;51.994;5.882;2022-10-04T07:07:03;27.38;;;15.02;;
68614;SDS011;55593;51.994;5.882;2022-10-04T07:10:02;20.10;;;11.20;;
68614;SDS011;55593;51.994;5.882;2022-10-04T07:12:42;20.38;;;14.00;;
68614;SDS011;55593;51.994;5.882;2022-10-04T07:15:18;19.73;;;15.77;;
68614;SDS011;55593;51.994;5.882;2022-10-04T07:17:50;23.48;;;15.35;;
68614;SDS011;55593;51.994;5.882;2022-10-04T07:20:21;33.63;;;15.63;;
68614;SDS011;55593;51.994;5.882;2022-10-04T07:22:56;26.70;;;16.83;;
68614;SDS011;55593;51.994;5.882;2022-10-04T07:25:28;28.88;;;15.30;;
68614;SDS011;55593;51.994;5.882;2022-10-04T07:28:01;24.00;;;15.02;;
68614;SDS011;55593;51.994;5.882;2022-10-04T07:30:46;29.85;;;14.88;;
68614;SDS011;55593;51.994;5.882;2022-10-04T07:33:20;28.55;;;15.98;;
68614;SDS011;55593;51.994;5.882;2022-10-04T07:35:52;27.67;;;15.38;;
68614;SDS011;55593;51.994;5.882;2022-10-04T07:38:27;30.42;;;14.45;;
68614;SDS011;55593;51.994;5.882;2022-10-04T07:41:02;24.02;;;15.45;;
68614;SDS011;55593;51.994;5.882;2022-10-04T07:43:37;21.55;;;13.60;;
68614;SDS011;55593;51.994;5.882;2022-10-04T07:46:17;21.67;;;14.52;;
68614;SDS011;55593;51.994;5.882;2022-10-04T07:48:49;22.70;;;14.02;;
68614;SDS011;55593;51.994;5.882;2022-10-04T07:51:20;24.73;;;14.77;;
68614;SDS011;55593;51.994;5.882;2022-10-04T07:53:56;23.15;;;14.07;;
68614;SDS011;55593;51.994;5.882;2022-10-04T07:56:30;20.00;;;13.10;;
68614;SDS011;55593;51.994;5.882;2022-10-04T07:59:04;24.95;;;14.00;;
68614;SDS011;55593;51.994;5.882;2022-10-04T08:01:44;23.30;;;11.95;;
68614;SDS011;55593;51.994;5.882;2022-10-04T08:04:19;22.58;;;13.75;;
68614;SDS011;55593;51.994;5.882;2022-10-04T08:06:56;19.30;;;12.07;;
68614;SDS011;55593;51.994;5.882;2022-10-04T08:09:38;20.65;;;12.75;;
68614;SDS011;55593;51.994;5.882;2022-10-04T08:12:14;18.02;;;12.02;;
68614;SDS011;55593;51.994;5.882;2022-10-04T08:14:53;21.05;;;12.20;;
68614;SDS011;55593;51.994;5.882;2022-10-04T08:20:17;19.13;;;11.00;;
68614;SDS011;55593;51.994;5.882;2022-10-04T08:22:58;19.02;;;9.88;;
68614;SDS011;55593;51.994;5.882;2022-10-04T08:25:40;19.50;;;10.95;;
68614;SDS011;55593;51.994;5.882;2022-10-04T08:28:16;18.15;;;10.20;;
68614;SDS011;55593;51.994;5.882;2022-10-04T08:31:06;14.43;;;10.43;;
68614;SDS011;55593;51.994;5.882;2022-10-04T08:33:49;20.52;;;10.88;;
68614;SDS011;55593;51.994;5.882;2022-10-04T08:36:28;18.77;;;10.68;;
68614;SDS011;55593;51.994;5.882;2022-10-04T08:49:04;17.70;;;9.75;;
68614;SDS011;55593;51.994;5.882;2022-10-04T09:01:25;23.05;;;11.02;;
68614;SDS011;55593;51.994;5.882;2022-10-04T09:07:07;20.38;;;11.07;;
68614;SDS011;55593;51.994;5.882;2022-10-04T09:09:54;18.92;;;10.23;;
68614;SDS011;55593;51.994;5.882;2022-10-04T09:12:41;21.20;;;10.32;;
68614;SDS011;55593;51.994;5.882;2022-10-04T09:15:17;19.35;;;11.07;;
68614;SDS011;55593;51.994;5.882;2022-10-04T09:17:52;20.58;;;10.75;;
68614;SDS011;55593;51.994;5.882;2022-10-04T09:20:31;18.15;;;10.07;;
68614;SDS011;55593;51.994;5.882;2022-10-04T09:23:17;20.67;;;9.90;;
68614;SDS011;55593;51.994;5.882;2022-10-04T09:26:01;20.73;;;11.02;;
68614;SDS011;55593;51.994;5.882;2022-10-04T09:31:48;22.17;;;10.98;;
68614;SDS011;55593;51.994;5.882;2022-10-04T09:34:37;17.10;;;10.38;;
68614;SDS011;55593;51.994;5.882;2022-10-04T09:46:23;24.63;;;11.20;;
68614;SDS011;55593;51.994;5.882;2022-10-04T09:49:01;24.67;;;10.85;;
68614;SDS011;55593;51.994;5.882;2022-10-04T09:51:42;19.67;;;11.35;;
68614;SDS011;55593;51.994;5.882;2022-10-04T09:57:31;19.27;;;9.23;;
68614;SDS011;55593;51.994;5.882;2022-10-04T10:00:19;15.57;;;9.45;;
68614;SDS011;55593;51.994;5.882;2022-10-04T10:02:56;20.17;;;8.95;;
68614;SDS011;55593;51.994;5.882;2022-10-04T10:05:57;17.98;;;7.95;;
68614;SDS011;55593;51.994;5.882;2022-10-04T10:08:40;17.42;;;8.45;;
68614;SDS011;55593;51.994;5.882;2022-10-04T10:11:20;14.80;;;8.02;;
68614;SDS011;55593;51.994;5.882;2022-10-04T10:14:25;13.63;;;7.65;;
68614;SDS011;55593;51.994;5.882;2022-10-04T10:17:04;19.45;;;7.65;;
68614;SDS011;55593;51.994;5.882;2022-10-04T10:19:58;16.80;;;8.00;;
68614;SDS011;55593;51.994;5.882;2022-10-04T10:25:51;16.45;;;7.28;;
68614;SDS011;55593;51.994;5.882;2022-10-04T10:28:34;16.67;;;9.50;;
68614;SDS011;55593;51.994;5.882;2022-10-04T10:34:01;13.75;;;6.82;;
68614;SDS011;55593;51.994;5.882;2022-10-04T10:36:55;18.73;;;8.05;;
68614;SDS011;55593;51.994;5.882;2022-10-04T10:39:54;11.45;;;6.82;;
68614;SDS011;55593;51.994;5.882;2022-10-04T10:42:49;19.07;;;8.17;;
68614;SDS011;55593;51.994;5.882;2022-10-04T10:48:20;15.60;;;8.27;;
68614;SDS011;55593;51.994;5.882;2022-10-04T10:51:08;14.88;;;8.57;;
68614;SDS011;55593;51.994;5.882;2022-10-04T10:57:42;16.55;;;8.90;;
68614;SDS011;55593;51.994;5.882;2022-10-04T11:00:23;13.75;;;7.38;;
68614;SDS011;55593;51.994;5.882;2022-10-04T11:09:21;14.32;;;7.88;;
68614;SDS011;55593;51.994;5.882;2022-10-04T11:12:08;16.75;;;7.60;;
68614;SDS011;55593;51.994;5.882;2022-10-04T11:14:52;17.48;;;7.55;;
68614;SDS011;55593;51.994;5.882;2022-10-04T11:17:38;18.00;;;7.97;;
68614;SDS011;55593;51.994;5.882;2022-10-04T11:20:43;15.90;;;6.83;;
68614;SDS011;55593;51.994;5.882;2022-10-04T11:23:45;13.45;;;7.25;;
68614;SDS011;55593;51.994;5.882;2022-10-04T11:29:31;12.35;;;6.60;;
68614;SDS011;55593;51.994;5.882;2022-10-04T11:32:15;14.68;;;7.47;;
68614;SDS011;55593;51.994;5.882;2022-10-04T11:35:09;11.75;;;6.43;;
68614;SDS011;55593;51.994;5.882;2022-10-04T11:38:00;16.10;;;7.80;;
68614;SDS011;55593;51.994;5.882;2022-10-04T11:43:43;17.67;;;6.53;;
68614;SDS011;55593;51.994;5.882;2022-10-04T11:46:26;13.48;;;6.88;;
68614;SDS011;55593;51.994;5.882;2022-10-04T11:49:11;17.42;;;8.50;;
68614;SDS011;55593;51.994;5.882;2022-10-04T11:57:46;15.68;;;6.47;;
68614;SDS011;55593;51.994;5.882;2022-10-04T12:00:18;13.55;;;6.80;;
68614;SDS011;55593;51.994;5.882;2022-10-04T12:05:45;14.98;;;5.72;;
68614;SDS011;55593;51.994;5.882;2022-10-04T12:08:32;13.98;;;6.57;;
68614;SDS011;55593;51.994;5.882;2022-10-04T12:14:28;14.18;;;6.70;;
68614;SDS011;55593;51.994;5.882;2022-10-04T12:31:45;14.07;;;5.13;;
68614;SDS011;55593;51.994;5.882;2022-10-04T12:34:21;14.75;;;5.63;;
68614;SDS011;55593;51.994;5.882;2022-10-04T12:36:58;10.05;;;5.68;;
68614;SDS011;55593;51.994;5.882;2022-10-04T12:39:41;15.30;;;4.88;;
68614;SDS011;55593;51.994;5.882;2022-10-04T12:42:21;12.20;;;5.78;;
68614;SDS011;55593;51.994;5.882;2022-10-04T12:47:54;14.10;;;5.50;;
68614;SDS011;55593;51.994;5.882;2022-10-04T12:50:44;11.77;;;6.25;;
68614;SDS011;55593;51.994;5.882;2022-10-04T12:53:20;18.25;;;5.78;;
68614;SDS011;55593;51.994;5.882;2022-10-04T12:56:11;12.57;;;5.45;;
68614;SDS011;55593;51.994;5.882;2022-10-04T13:01:41;14.55;;;6.55;;
68614;SDS011;55593;51.994;5.882;2022-10-04T13:04:22;15.60;;;5.88;;
68614;SDS011;55593;51.994;5.882;2022-10-04T13:07:13;10.30;;;5.15;;
68614;SDS011;55593;51.994;5.882;2022-10-04T13:10:13;14.18;;;6.38;;
68614;SDS011;55593;51.994;5.882;2022-10-04T13:13:01;9.85;;;5.40;;
68614;SDS011;55593;51.994;5.882;2022-10-04T13:15:50;10.38;;;6.03;;
68614;SDS011;55593;51.994;5.882;2022-10-04T13:18:25;10.55;;;5.47;;
68614;SDS011;55593;51.994;5.882;2022-10-04T13:21:01;14.30;;;4.80;;
68614;SDS011;55593;51.994;5.882;2022-10-04T13:23:41;13.63;;;5.50;;
68614;SDS011;55593;51.994;5.882;2022-10-04T13:29:13;12.13;;;5.20;;
68614;SDS011;55593;51.994;5.882;2022-10-04T13:31:48;8.95;;;4.25;;
68614;SDS011;55593;51.994;5.882;2022-10-04T13:34:23;7.57;;;4.20;;
68614;SDS011;55593;51.994;5.882;2022-10-04T13:37:02;13.87;;;4.90;;
68614;SDS011;55593;51.994;5.882;2022-10-04T13:42:55;12.43;;;4.72;;
68614;SDS011;55593;51.994;5.882;2022-10-04T13:45:47;9.30;;;3.80;;
68614;SDS011;55593;51.994;5.882;2022-10-04T13:48:25;6.75;;;3.72;;
68614;SDS011;55593;51.994;5.882;2022-10-04T13:51:02;7.93;;;3.70;;
68614;SDS011;55593;51.994;5.882;2022-10-04T13:53:51;10.52;;;3.80;;
68614;SDS011;55593;51.994;5.882;2022-10-04T13:56:45;9.82;;;3.92;;
68614;SDS011;55593;51.994;5.882;2022-10-04T13:59:24;14.05;;;4.10;;
68614;SDS011;55593;51.994;5.882;2022-10-04T14:08:12;9.93;;;4.30;;
68614;SDS011;55593;51.994;5.882;2022-10-04T14:11:10;9.13;;;4.20;;
68614;SDS011;55593;51.994;5.882;2022-10-04T14:17:06;12.02;;;5.18;;
68614;SDS011;55593;51.994;5.882;2022-10-04T14:19:59;10.20;;;4.37;;
68614;SDS011;55593;51.994;5.882;2022-10-04T14:22:52;11.38;;;4.25;;
68614;SDS011;55593;51.994;5.882;2022-10-04T14:25:42;13.43;;;4.60;;
68614;SDS011;55593;51.994;5.882;2022-10-04T14:31:50;7.78;;;4.25;;
68614;SDS011;55593;51.994;5.882;2022-10-04T14:34:48;8.05;;;4.20;;
68614;SDS011;55593;51.994;5.882;2022-10-04T14:37:27;8.80;;;3.88;;
68614;SDS011;55593;51.994;5.882;2022-10-04T14:40:17;12.32;;;4.03;;
68614;SDS011;55593;51.994;5.882;2022-10-04T14:46:07;16.50;;;4.65;;
68614;SDS011;55593;51.994;5.882;2022-10-04T14:48:48;9.25;;;4.10;;
68614;SDS011;55593;51.994;5.882;2022-10-04T14:51:42;14.80;;;4.72;;
68614;SDS011;55593;51.994;5.882;2022-10-04T14:54:25;11.65;;;5.13;;
68614;SDS011;55593;51.994;5.882;2022-10-04T14:57:00;10.85;;;4.43;;
68614;SDS011;55593;51.994;5.882;2022-10-04T14:59:44;8.50;;;4.15;;
68614;SDS011;55593;51.994;5.882;2022-10-04T15:02:21;9.45;;;4.20;;
68614;SDS011;55593;51.994;5.882;2022-10-04T15:05:11;8.52;;;3.90;;
68614;SDS011;55593;51.994;5.882;2022-10-04T15:08:08;9.93;;;3.80;;
68614;SDS011;55593;51.994;5.882;2022-10-04T15:10:47;13.07;;;4.32;;
68614;SDS011;55593;51.994;5.882;2022-10-04T15:13:18;12.35;;;3.63;;
68614;SDS011;55593;51.994;5.882;2022-10-04T15:15:55;11.93;;;4.65;;
68614;SDS011;55593;51.994;5.882;2022-10-04T15:18:32;7.72;;;3.60;;
68614;SDS011;55593;51.994;5.882;2022-10-04T15:21:29;9.93;;;4.32;;
68614;SDS011;55593;51.994;5.882;2022-10-04T15:24:11;8.18;;;4.18;;
68614;SDS011;55593;51.994;5.882;2022-10-04T15:26:49;8.10;;;4.25;;
68614;SDS011;55593;51.994;5.882;2022-10-04T15:29:25;8.90;;;4.22;;
68614;SDS011;55593;51.994;5.882;2022-10-04T15:32:00;14.40;;;4.20;;
68614;SDS011;55593;51.994;5.882;2022-10-04T15:34:34;11.68;;;4.35;;
68614;SDS011;55593;51.994;5.882;2022-10-04T15:37:22;12.60;;;3.90;;
68614;SDS011;55593;51.994;5.882;2022-10-04T15:42:55;12.63;;;3.90;;
68614;SDS011;55593;51.994;5.882;2022-10-04T15:48:52;10.93;;;3.83;;
68614;SDS011;55593;51.994;5.882;2022-10-04T15:51:34;9.38;;;4.15;;
68614;SDS011;55593;51.994;5.882;2022-10-04T15:57:21;6.38;;;3.63;;
68614;SDS011;55593;51.994;5.882;2022-10-04T15:59:57;6.00;;;3.45;;
68614;SDS011;55593;51.994;5.882;2022-10-04T16:02:39;15.57;;;4.65;;
68614;SDS011;55593;51.994;5.882;2022-10-04T16:05:17;7.68;;;3.67;;
68614;SDS011;55593;51.994;5.882;2022-10-04T16:07:54;11.88;;;4.47;;
68614;SDS011;55593;51.994;5.882;2022-10-04T16:16:32;11.48;;;4.22;;
68614;SDS011;55593;51.994;5.882;2022-10-04T16:19:19;8.02;;;4.50;;
68614;SDS011;55593;51.994;5.882;2022-10-04T16:22:06;12.85;;;4.95;;
68614;SDS011;55593;51.994;5.882;2022-10-04T16:24:41;11.40;;;5.15;;
68614;SDS011;55593;51.994;5.882;2022-10-04T16:27:21;11.65;;;4.60;;
68614;SDS011;55593;51.994;5.882;2022-10-04T16:30:11;11.88;;;4.05;;
68614;SDS011;55593;51.994;5.882;2022-10-04T16:32:44;9.82;;;4.53;;
68614;SDS011;55593;51.994;5.882;2022-10-04T16:35:22;12.18;;;6.05;;
68614;SDS011;55593;51.994;5.882;2022-10-04T16:37:55;15.27;;;9.90;;
68614;SDS011;55593;51.994;5.882;2022-10-04T16:40:31;23.95;;;19.40;;
68614;SDS011;55593;51.994;5.882;2022-10-04T16:43:06;19.50;;;14.95;;
68614;SDS011;55593;51.994;5.882;2022-10-04T16:45:42;20.10;;;13.27;;
68614;SDS011;55593;51.994;5.882;2022-10-04T16:48:27;9.50;;;5.35;;
68614;SDS011;55593;51.994;5.882;2022-10-04T16:53:59;11.93;;;4.88;;
68614;SDS011;55593;51.994;5.882;2022-10-04T16:59:46;11.50;;;4.93;;
68614;SDS011;55593;51.994;5.882;2022-10-04T17:05:32;8.70;;;4.22;;
68614;SDS011;55593;51.994;5.882;2022-10-04T17:17:19;8.30;;;5.60;;
68614;SDS011;55593;51.994;5.882;2022-10-04T17:19:52;8.40;;;4.82;;
68614;SDS011;55593;51.994;5.882;2022-10-04T17:22:26;13.25;;;5.10;;
68614;SDS011;55593;51.994;5.882;2022-10-04T17:25:00;10.10;;;5.28;;
68614;SDS011;55593;51.994;5.882;2022-10-04T17:27:43;12.50;;;5.57;;
68614;SDS011;55593;51.994;5.882;2022-10-04T17:30:18;11.25;;;5.55;;
68614;SDS011;55593;51.994;5.882;2022-10-04T17:38:47;14.48;;;9.20;;
68614;SDS011;55593;51.994;5.882;2022-10-04T17:41:26;19.45;;;8.93;;
68614;SDS011;55593;51.994;5.882;2022-10-04T17:47:00;17.00;;;8.27;;
68614;SDS011;55593;51.994;5.882;2022-10-04T17:49:40;17.95;;;9.80;;
68614;SDS011;55593;51.994;5.882;2022-10-04T17:52:27;15.50;;;9.05;;
68614;SDS011;55593;51.994;5.882;2022-10-04T17:55:12;19.00;;;8.38;;
68614;SDS011;55593;51.994;5.882;2022-10-04T17:57:48;17.90;;;7.70;;
68614;SDS011;55593;51.994;5.882;2022-10-04T18:00:19;15.13;;;8.10;;
68614;SDS011;55593;51.994;5.882;2022-10-04T18:03:01;15.23;;;7.68;;
68614;SDS011;55593;51.994;5.882;2022-10-04T18:05:44;11.45;;;6.53;;
68614;SDS011;55593;51.994;5.882;2022-10-04T18:08:17;9.13;;;6.32;;
68614;SDS011;55593;51.994;5.882;2022-10-04T18:13:32;9.07;;;6.32;;
68614;SDS011;55593;51.994;5.882;2022-10-04T18:16:08;10.73;;;6.97;;
68614;SDS011;55593;51.994;5.882;2022-10-04T18:18:42;12.45;;;6.70;;
68614;SDS011;55593;51.994;5.882;2022-10-04T18:21:22;13.55;;;7.13;;
68614;SDS011;55593;51.994;5.882;2022-10-04T18:23:54;11.68;;;6.95;;
68614;SDS011;55593;51.994;5.882;2022-10-04T18:26:26;10.38;;;6.65;;
68614;SDS011;55593;51.994;5.882;2022-10-04T18:28:58;12.50;;;7.50;;
68614;SDS011;55593;51.994;5.882;2022-10-04T18:31:37;18.42;;;9.32;;
68614;SDS011;55593;51.994;5.882;2022-10-04T18:34:14;42.42;;;18.42;;
68614;SDS011;55593;51.994;5.882;2022-10-04T18:36:51;28.33;;;14.82;;
68614;SDS011;55593;51.994;5.882;2022-10-04T18:39:21;26.55;;;16.52;;
68614;SDS011;55593;51.994;5.882;2022-10-04T18:41:57;23.35;;;12.15;;
68614;SDS011;55593;51.994;5.882;2022-10-04T18:44:39;17.08;;;10.45;;
68614;SDS011;55593;51.994;5.882;2022-10-04T18:47:15;35.10;;;17.25;;
68614;SDS011;55593;51.994;5.882;2022-10-04T18:49:47;49.53;;;24.17;;
68614;SDS011;55593;51.994;5.882;2022-10-04T18:52:24;22.80;;;13.32;;